»·PEaware :: N859KT KSUN-KBOI

N859KT :: KSUN-KBOI

FLIGHT INFORMATION

Flight Status: Arrived
Operator: Privately registered:
United States
More flights under this callsign
Pilot: Chris L. (17558)
Aircraft: CESSNA 172 SKYHAWK
(C172)
More flights by this aircraft type
Origin: KSUN Friedman Meml
United States
Destination: KBOI Boise Air Terminal/Gowen
United States
More flights between these airports :: More routes between these airports
Route: +SOLDE
File this flight plan on PilotEdge
Remarks:
Altitude:
(Current/Filed)
10,500ft
Speed:
(Current/Filed)
107kts
Departed: 09-Jul-18 07:46 AM
Arrived: 09-Jul-18 09:02 AM
Distance/Time
Traveled:
84nm/1:16
Distance/Time
To Go:
Arrived

Flight Plot

Page will automatically refresh every two minutes.

Flight plan parsing failed; only flown route is shown


Map Options




Map Legend


Flown Route
Filed Route
Departure Airport
Arrival Airport
Navaid (VOR, NDB)
Fix

Horizontal Profiles

Position Reports

Time Latitude Longitude Heading Altitude Ground
Speed
09-Jul-18 07:31 43.498117 -114.293110 54 5297ft 0kts
09-Jul-18 07:32 43.498117 -114.293110 54 5297ft 0kts
09-Jul-18 07:33 43.498117 -114.293110 54 5297ft 0kts
09-Jul-18 07:34 43.498117 -114.293110 54 5297ft 0kts
09-Jul-18 07:35 43.498117 -114.293110 54 5297ft 0kts
09-Jul-18 07:36 43.498117 -114.293110 54 5297ft 0kts
09-Jul-18 07:37 43.498496 -114.292356 55 5297ft 5kts
09-Jul-18 07:38 43.496684 -114.290156 145 5297ft 14kts
09-Jul-18 07:39 43.494980 -114.288292 233 5297ft 0kts
09-Jul-18 07:40 43.494980 -114.288292 233 5297ft 0kts
09-Jul-18 07:41 43.494980 -114.288292 233 5297ft 0kts
09-Jul-18 07:42 43.494980 -114.288292 233 5297ft 0kts
09-Jul-18 07:43 43.494980 -114.288292 233 5297ft 0kts
09-Jul-18 07:44 43.494980 -114.288292 233 5297ft 0kts
09-Jul-18 07:45 43.494980 -114.288292 233 5297ft 0kts
09-Jul-18 07:46 43.495479 -114.287475 333 5297ft 6kts
09-Jul-18 07:47 43.509828 -114.299959 327 5553ft 85kts
09-Jul-18 07:48 43.531708 -114.314657 328 6130ft 88kts
09-Jul-18 07:49 43.553067 -114.328722 328 6729ft 81kts
09-Jul-18 07:50 43.572400 -114.340486 328 7242ft 77kts
09-Jul-18 07:51 43.596978 -114.348934 351 7559ft 105kts
09-Jul-18 07:52 43.627659 -114.351797 352 7861ft 116kts
09-Jul-18 07:53 43.660345 -114.354557 351 8227ft 115kts
09-Jul-18 07:54 43.681765 -114.334786 114 8603ft 104kts
09-Jul-18 07:55 43.659680 -114.323611 180 8991ft 87kts
09-Jul-18 07:56 43.635349 -114.321053 182 9390ft 88kts
09-Jul-18 07:57 43.611035 -114.318028 181 9785ft 88kts
09-Jul-18 07:58 43.586650 -114.314683 182 10181ft 88kts
09-Jul-18 07:59 43.562340 -114.310898 182 10574ft 88kts
09-Jul-18 08:00 43.538087 -114.301291 168 10931ft 97kts
09-Jul-18 08:01 43.510104 -114.285805 162 10834ft 115kts
09-Jul-18 08:02 43.479609 -114.300905 215 10702ft 103kts
09-Jul-18 08:03 43.459262 -114.318241 215 10613ft 102kts
09-Jul-18 08:04 43.435569 -114.338834 220 10504ft 99kts
09-Jul-18 08:05 43.414487 -114.363136 222 10396ft 98kts
09-Jul-18 08:06 43.394958 -114.385697 222 10480ft 86kts
09-Jul-18 08:07 43.376427 -114.406780 222 10500ft 87kts
09-Jul-18 08:08 43.357638 -114.428171 222 10500ft 88kts
09-Jul-18 08:09 43.346975 -114.454705 275 10462ft 94kts
09-Jul-18 08:10 43.351855 -114.488721 274 10499ft 90kts
09-Jul-18 08:11 43.337141 -114.511833 215 10499ft 88kts
09-Jul-18 08:12 43.315841 -114.528818 214 10499ft 88kts
09-Jul-18 08:13 43.294485 -114.545803 214 10499ft 88kts
09-Jul-18 08:14 43.273100 -114.562791 214 10499ft 88kts
09-Jul-18 08:15 43.260515 -114.586336 285 10498ft 92kts
09-Jul-18 08:16 43.271798 -114.618362 288 10499ft 93kts
09-Jul-18 08:17 43.282550 -114.650712 283 10499ft 92kts
09-Jul-18 08:18 43.287662 -114.675049 275 10502ft 91kts
09-Jul-18 08:19 43.293109 -114.709196 275 10502ft 92kts
09-Jul-18 08:20 43.298547 -114.743471 275 10500ft 92kts
09-Jul-18 08:21 43.303940 -114.777865 275 10498ft 92kts
09-Jul-18 08:22 43.309257 -114.812134 275 10496ft 91kts
09-Jul-18 08:23 43.314527 -114.846386 275 10494ft 91kts
09-Jul-18 08:24 43.319773 -114.880701 275 10493ft 91kts
09-Jul-18 08:25 43.324970 -114.914841 275 10493ft 91kts
09-Jul-18 08:26 43.330434 -114.950823 275 10007ft 98kts
09-Jul-18 08:27 43.336300 -114.987868 275 9504ft 101kts
09-Jul-18 08:28 43.342807 -115.025928 275 9001ft 104kts
09-Jul-18 08:29 43.345693 -115.064741 285 8502ft 100kts
09-Jul-18 08:30 43.351298 -115.100252 285 8456ft 97kts
09-Jul-18 08:31 43.358562 -115.137345 288 8439ft 100kts
09-Jul-18 08:32 43.367205 -115.173800 288 8422ft 100kts
09-Jul-18 08:33 43.376468 -115.209867 288 8408ft 100kts
09-Jul-18 08:34 43.381883 -115.246647 266 8408ft 99kts
09-Jul-18 08:35 43.378594 -115.284563 265 8408ft 99kts
09-Jul-18 08:36 43.375280 -115.322359 265 8408ft 99kts
09-Jul-18 08:37 43.371949 -115.360223 265 8407ft 99kts
09-Jul-18 08:38 43.368618 -115.397982 265 8407ft 99kts
09-Jul-18 08:39 43.366034 -115.435830 270 8407ft 99kts
09-Jul-18 08:40 43.365478 -115.473758 270 8407ft 99kts
09-Jul-18 08:41 43.368475 -115.510755 295 8407ft 99kts
09-Jul-18 08:42 43.381388 -115.544333 295 8407ft 99kts
09-Jul-18 08:43 43.394328 -115.577908 295 8407ft 99kts
09-Jul-18 08:44 43.407287 -115.611558 295 8407ft 99kts
09-Jul-18 08:45 43.420187 -115.645084 295 8407ft 99kts
09-Jul-18 08:46 43.433053 -115.678668 295 8410ft 100kts
09-Jul-18 08:47 43.445353 -115.712989 290 8409ft 100kts
09-Jul-18 08:48 43.455608 -115.748700 289 8408ft 100kts
09-Jul-18 08:49 43.465155 -115.784643 288 8407ft 100kts
09-Jul-18 08:50 43.472862 -115.819755 284 7970ft 89kts
09-Jul-18 08:51 43.478246 -115.852405 284 7470ft 86kts
09-Jul-18 08:52 43.483210 -115.884867 284 6973ft 87kts
09-Jul-18 08:53 43.487833 -115.918252 283 6472ft 89kts
09-Jul-18 08:54 43.492147 -115.952311 283 5974ft 91kts
09-Jul-18 08:55 43.496579 -115.987269 283 5473ft 93kts
09-Jul-18 08:56 43.501131 -116.022595 283 5013ft 92kts
09-Jul-18 08:57 43.505662 -116.057059 284 4611ft 91kts
09-Jul-18 08:58 43.514536 -116.089536 296 4225ft 91kts
09-Jul-18 08:59 43.526012 -116.120566 299 3832ft 89kts
09-Jul-18 09:00 43.536926 -116.147501 299 3534ft 80kts
09-Jul-18 09:01 43.546609 -116.174451 297 3273ft 71kts
09-Jul-18 09:02 43.554673 -116.198214 297 3020ft 64kts
09-Jul-18 09:03 43.560715 -116.215521 292 2847ft 15kts
09-Jul-18 09:04 43.560340 -116.217076 235 2847ft 0kts
09-Jul-18 09:05 43.560122 -116.217671 296 2847ft 8kts
09-Jul-18 09:06 43.559125 -116.218999 125 2847ft 3kts

Navigation Log

Ident Type
Flight plan parsing failed, navigation log unavailable